Time;durP1;ratioP1;P1;durP2;ratioP2;P2;SDS_P1;SDS_P2;PMS_P1;PMS_P2;Temp;Humidity;BMP_temperature;BMP_pressure;BME280_temperature;BME280_humidity;BME280_pressure;Samples;Min_cycle;Max_cycle;Signal;HPM_P1;HPM_P2
2021/04/04 00:00:18;;;;;;;8.13;4.50;;;2.30;90.50;;;;;;5031560;28;20216;-71
2021/04/04 00:02:45;;;;;;;6.32;4.15;;;2.20;90.50;;;;;;5031993;28;20241;-71
2021/04/04 00:05:12;;;;;;;9.52;4.70;;;2.20;90.70;;;;;;5031936;28;20209;-71
2021/04/04 00:07:39;;;;;;;4.80;4.05;;;2.20;90.80;;;;;;5034399;28;20286;-71
2021/04/04 00:10:09;;;;;;;6.40;3.70;;;2.10;91.00;;;;;;5034018;28;20198;-71
2021/04/04 00:12:35;;;;;;;8.52;4.35;;;2.10;91.00;;;;;;5032059;28;20198;-71
2021/04/04 00:15:02;;;;;;;6.95;3.90;;;2.10;91.00;;;;;;5031562;28;20251;-71
2021/04/04 00:17:28;;;;;;;4.88;4.00;;;2.00;91.10;;;;;;5031679;28;20721;-71
2021/04/04 00:19:54;;;;;;;4.15;3.67;;;2.00;91.50;;;;;;5030891;28;20256;-71
2021/04/04 00:22:20;;;;;;;6.15;3.80;;;2.00;91.50;;;;;;5031822;28;20283;-71
2021/04/04 00:24:47;;;;;;;3.63;2.97;;;2.00;91.60;;;;;;5031613;28;20683;-71
2021/04/04 00:27:14;;;;;;;5.50;3.38;;;1.90;91.60;;;;;;5031558;28;20256;-71
2021/04/04 00:29:40;;;;;;;11.32;3.47;;;1.90;91.60;;;;;;5031166;28;20201;-71
2021/04/04 00:32:07;;;;;;;3.95;3.22;;;1.90;91.60;;;;;;5031200;28;20209;-71
2021/04/04 00:34:33;;;;;;;4.95;3.70;;;1.90;91.50;;;;;;5031455;28;20668;-71
2021/04/04 00:36:59;;;;;;;5.55;3.70;;;1.90;91.90;;;;;;5030747;28;20201;-71
2021/04/04 00:39:27;;;;;;;3.95;3.20;;;1.80;91.90;;;;;;5031009;28;20221;-71
2021/04/04 00:41:53;;;;;;;4.75;3.22;;;1.80;91.80;;;;;;5031315;28;20214;-71
2021/04/04 00:44:20;;;;;;;5.00;3.28;;;1.80;92.00;;;;;;5030871;28;20668;-71
2021/04/04 00:46:47;;;;;;;4.93;3.10;;;1.70;92.00;;;;;;5031251;28;20201;-71
2021/04/04 00:49:13;;;;;;;3.75;3.28;;;1.70;92.20;;;;;;5030509;28;20290;-71
2021/04/04 00:51:39;;;;;;;6.35;3.50;;;1.70;92.40;;;;;;5031311;28;20201;-71
2021/04/04 00:54:07;;;;;;;3.92;3.53;;;1.60;92.40;;;;;;5030842;28;20202;-71
2021/04/04 00:56:34;;;;;;;5.88;3.55;;;1.60;92.50;;;;;;5031318;28;20209;-71
2021/04/04 00:59:03;;;;;;;6.05;3.30;;;1.60;92.60;;;;;;5030266;28;20570;-71
2021/04/04 01:01:33;;;;;;;5.10;3.15;;;1.50;92.70;;;;;;5031144;28;20206;-72
2021/04/04 01:04:00;;;;;;;7.00;3.40;;;1.50;93.00;;;;;;5031461;28;20212;-70
2021/04/04 01:06:26;;;;;;;9.30;3.45;;;1.50;92.90;;;;;;5031287;28;20210;-71
2021/04/04 01:08:53;;;;;;;7.82;3.40;;;1.50;92.90;;;;;;5028083;28;20636;-72
2021/04/04 01:11:27;;;;;;;9.30;3.13;;;1.50;93.00;;;;;;5028372;28;20703;-71
2021/04/04 01:13:59;;;;;;;5.72;3.50;;;1.50;93.10;;;;;;5030284;28;20201;-71
2021/04/04 01:16:31;;;;;;;6.53;3.55;;;1.40;93.30;;;;;;5030892;28;20205;-72
2021/04/04 01:19:06;;;;;;;3.75;3.13;;;1.40;93.30;;;;;;5029776;28;20237;-72
2021/04/04 01:21:41;;;;;;;4.97;3.50;;;1.40;93.20;;;;;;5030944;28;20206;-72
2021/04/04 01:24:19;;;;;;;4.53;3.50;;;1.40;93.20;;;;;;5030241;28;20201;-71
2021/04/04 01:26:52;;;;;;;4.22;3.60;;;1.40;93.20;;;;;;5030700;28;20217;-71
2021/04/04 01:29:22;;;;;;;7.18;3.60;;;1.40;93.20;;;;;;5029947;28;20229;-71
2021/04/04 01:31:50;;;;;;;7.95;3.58;;;1.40;93.20;;;;;;5030351;28;20217;-71
2021/04/04 01:34:19;;;;;;;6.28;3.60;;;1.40;93.20;;;;;;5030477;28;20635;-71
2021/04/04 01:36:50;;;;;;;5.20;3.53;;;1.30;93.30;;;;;;5030111;28;20217;-72
2021/04/04 01:39:19;;;;;;;4.32;3.17;;;1.30;93.40;;;;;;5029751;28;20284;-71
2021/04/04 01:41:46;;;;;;;7.43;3.80;;;1.30;93.40;;;;;;5030192;28;20209;-71
2021/04/04 01:44:14;;;;;;;8.95;3.50;;;1.30;93.40;;;;;;5030012;28;20216;-72
2021/04/04 01:46:43;;;;;;;5.15;3.15;;;1.30;93.40;;;;;;5029830;28;20587;-71
2021/04/04 01:49:10;;;;;;;4.63;3.88;;;1.30;93.60;;;;;;5029091;28;20320;-71
2021/04/04 01:51:38;;;;;;;5.90;3.97;;;1.20;93.60;;;;;;5030176;28;20555;-71
2021/04/04 01:54:06;;;;;;;5.03;3.55;;;1.20;93.70;;;;;;5029595;28;20198;-71
2021/04/04 01:56:33;;;;;;;4.95;3.50;;;1.20;93.70;;;;;;5030082;28;20209;-71
2021/04/04 01:59:00;;;;;;;5.38;3.58;;;1.20;93.80;;;;;;5029082;28;20237;-71
2021/04/04 02:01:28;;;;;;;3.63;3.10;;;1.20;93.70;;;;;;5030062;28;20259;-70
2021/04/04 02:03:58;;;;;;;8.43;4.40;;;1.20;93.60;;;;;;5030088;28;20209;-71
2021/04/04 02:06:25;;;;;;;7.28;3.25;;;1.20;93.80;;;;;;5030020;28;20205;-70
2021/04/04 02:08:53;;;;;;;4.50;2.80;;;1.10;93.90;;;;;;5029354;28;20253;-71
2021/04/04 02:11:22;;;;;;;3.67;3.20;;;1.10;93.90;;;;;;5029748;28;20251;-72
2021/04/04 02:13:50;;;;;;;3.60;2.97;;;1.10;93.90;;;;;;5029965;28;20201;-72
2021/04/04 02:16:19;;;;;;;8.45;3.50;;;1.20;93.90;;;;;;5029943;28;20205;-71
2021/04/04 02:18:46;;;;;;;5.32;2.67;;;1.20;93.70;;;;;;5029004;28;20597;-71
2021/04/04 02:21:14;;;;;;;5.32;2.65;;;1.20;93.70;;;;;;5029688;28;20212;-71
2021/04/04 02:23:41;;;;;;;4.88;3.42;;;1.10;93.70;;;;;;5029261;28;20736;-71
2021/04/04 02:26:08;;;;;;;5.43;2.88;;;1.10;93.80;;;;;;5029425;28;20217;-71
2021/04/04 02:28:34;;;;;;;4.90;3.08;;;1.00;93.90;;;;;;5028482;28;20221;-71
2021/04/04 02:31:01;;;;;;;7.05;3.47;;;1.00;94.00;;;;;;5029326;28;20260;-71
2021/04/04 02:33:35;;;;;;;5.95;2.88;;;1.00;94.10;;;;;;5029626;28;20212;-71
2021/04/04 02:36:06;;;;;;;5.70;3.25;;;0.90;94.20;;;;;;5029172;28;20290;-71
2021/04/04 02:38:37;;;;;;;7.45;3.30;;;0.90;94.30;;;;;;5028954;28;20222;-71
2021/04/04 02:41:06;;;;;;;5.03;2.80;;;0.90;94.40;;;;;;5029209;28;20623;-72
2021/04/04 02:43:34;;;;;;;5.75;3.28;;;0.90;94.30;;;;;;5029339;28;20202;-71
2021/04/04 02:46:03;;;;;;;4.22;2.92;;;0.90;94.50;;;;;;5029581;28;20572;-72
2021/04/04 02:48:31;;;;;;;3.63;3.10;;;0.90;94.60;;;;;;5029748;28;20217;-72
2021/04/04 02:51:01;;;;;;;3.90;3.10;;;0.80;94.60;;;;;;5030097;28;20232;-72
2021/04/04 02:53:29;;;;;;;9.05;2.90;;;0.80;94.90;;;;;;5029359;28;20202;-72
2021/04/04 02:55:58;;;;;;;3.00;2.72;;;0.80;95.20;;;;;;5029032;28;20596;-71
2021/04/04 02:58:25;;;;;;;5.95;3.35;;;0.80;95.00;;;;;;5028159;28;20229;-71
2021/04/04 03:00:55;;;;;;;4.50;2.80;;;0.80;95.00;;;;;;5028737;28;20209;-71
2021/04/04 03:03:22;;;;;;;4.43;3.05;;;0.70;95.10;;;;;;5028956;28;20213;-70
2021/04/04 03:05:49;;;;;;;3.53;3.17;;;0.70;95.40;;;;;;5028399;28;20201;-71
2021/04/04 03:08:18;;;;;;;3.28;2.97;;;0.70;95.40;;;;;;5028408;28;20225;-71
2021/04/04 03:10:50;;;;;;;4.20;2.90;;;0.70;95.30;;;;;;5028399;28;20216;-70
2021/04/04 03:13:19;;;;;;;4.07;2.60;;;0.70;95.20;;;;;;5031082;28;20336;-71
2021/04/04 03:15:46;;;;;;;5.90;3.10;;;0.70;95.30;;;;;;5029934;28;20209;-71
2021/04/04 03:18:12;;;;;;;5.50;3.00;;;0.70;95.50;;;;;;5029715;28;20616;-71
2021/04/04 03:20:39;;;;;;;4.97;2.85;;;0.60;95.50;;;;;;5028156;28;20198;-71
2021/04/04 03:23:06;;;;;;;8.23;3.65;;;0.60;95.60;;;;;;5028327;28;20201;-71
2021/04/04 03:25:32;;;;;;;8.45;3.70;;;0.50;95.70;;;;;;5028394;28;20252;-71
2021/04/04 03:27:59;;;;;;;7.63;3.60;;;0.60;95.80;;;;;;5028124;28;20241;-70
2021/04/04 03:30:42;;;;;;;3.00;2.70;;;0.50;95.90;;;;;;5028200;28;20202;-71
2021/04/04 03:33:10;;;;;;;3.33;3.03;;;0.50;95.90;;;;;;5031196;28;20279;-71
2021/04/04 03:35:38;;;;;;;4.00;2.80;;;0.50;96.00;;;;;;5032488;28;20205;-71
2021/04/04 03:38:08;;;;;;;2.85;2.55;;;0.50;95.90;;;;;;5032112;28;20228;-71
2021/04/04 03:40:34;;;;;;;3.17;2.88;;;0.50;96.00;;;;;;5031698;28;20202;-71
2021/04/04 03:43:05;;;;;;;6.93;5.00;;;0.50;96.10;;;;;;5032263;28;20672;-71
2021/04/04 03:45:33;;;;;;;3.60;2.55;;;0.40;96.30;;;;;;5032097;28;20213;-71
2021/04/04 03:48:00;;;;;;;4.63;3.00;;;0.50;96.30;;;;;;5031910;28;20221;-71
2021/04/04 03:50:27;;;;;;;4.03;2.95;;;0.50;96.10;;;;;;5031621;28;20213;-71
2021/04/04 03:52:53;;;;;;;3.95;3.60;;;0.50;96.10;;;;;;5031792;28;20252;-71
2021/04/04 03:55:23;;;;;;;3.60;2.55;;;0.50;96.30;;;;;;5031999;28;20669;-71
2021/04/04 03:57:51;;;;;;;3.80;3.15;;;0.50;96.30;;;;;;5031602;28;20226;-71
2021/04/04 04:00:22;;;;;;;4.72;2.78;;;0.50;96.30;;;;;;5031611;28;20206;-70
2021/04/04 04:02:51;;;;;;;4.82;3.05;;;0.40;96.20;;;;;;5031827;28;20193;-70
2021/04/04 04:05:18;;;;;;;4.57;3.38;;;0.40;96.40;;;;;;5031873;28;20582;-71
2021/04/04 04:07:45;;;;;;;4.05;3.08;;;0.40;96.40;;;;;;5031748;28;20224;-71
2021/04/04 04:10:14;;;;;;;3.95;2.50;;;0.40;96.50;;;;;;5030873;28;20776;-71
2021/04/04 04:12:41;;;;;;;3.65;2.65;;;0.30;96.60;;;;;;5031793;28;20236;-71
2021/04/04 04:15:09;;;;;;;4.70;2.90;;;0.30;96.90;;;;;;5031353;28;20201;-71
2021/04/04 04:17:37;;;;;;;4.72;2.70;;;0.30;96.90;;;;;;5031534;28;20711;-71
2021/04/04 04:20:06;;;;;;;4.50;3.00;;;0.30;97.00;;;;;;5031064;28;20579;-71
2021/04/04 04:22:33;;;;;;;6.35;3.75;;;0.30;97.00;;;;;;5031590;28;20260;-71
2021/04/04 04:25:00;;;;;;;4.15;3.00;;;0.30;97.00;;;;;;5031206;28;20209;-71
2021/04/04 04:27:27;;;;;;;5.18;3.53;;;0.30;97.20;;;;;;5031400;28;20308;-71
2021/04/04 04:29:55;;;;;;;6.43;3.30;;;0.30;97.40;;;;;;5030840;28;20259;-70
2021/04/04 04:32:24;;;;;;;4.80;3.33;;;0.20;97.50;;;;;;5030949;28;20214;-71
2021/04/04 04:34:53;;;;;;;3.17;2.88;;;0.20;97.40;;;;;;5031187;28;20205;-70
2021/04/04 04:37:21;;;;;;;7.38;2.90;;;0.20;97.70;;;;;;5031166;28;20228;-70
2021/04/04 04:39:49;;;;;;;4.93;3.70;;;0.20;97.70;;;;;;5030178;28;20252;-70
2021/04/04 04:42:17;;;;;;;5.50;3.38;;;0.20;97.60;;;;;;5031634;28;20202;-71
2021/04/04 04:44:46;;;;;;;6.75;3.97;;;0.20;97.60;;;;;;5029824;28;20214;-71
2021/04/04 04:47:13;;;;;;;7.22;3.30;;;0.20;97.70;;;;;;5030826;28;20209;-71
2021/04/04 04:49:43;;;;;;;6.45;3.58;;;0.20;97.50;;;;;;5030705;28;20556;-71
2021/04/04 04:52:10;;;;;;;5.18;3.22;;;0.20;97.70;;;;;;5030753;28;20225;-72
2021/04/04 04:54:40;;;;;;;5.38;3.00;;;0.20;97.90;;;;;;5031089;28;20198;-71
2021/04/04 04:57:09;;;;;;;9.45;3.45;;;0.20;97.90;;;;;;5030578;28;20224;-71
2021/04/04 04:59:35;;;;;;;8.13;3.33;;;0.20;98.00;;;;;;5030360;28;20217;-71
2021/04/04 05:02:04;;;;;;;6.13;3.45;;;0.20;98.30;;;;;;5030413;28;20574;-71
2021/04/04 05:04:31;;;;;;;4.45;3.35;;;0.20;98.30;;;;;;5031044;28;20209;-71
2021/04/04 05:06:58;;;;;;;3.53;2.72;;;0.20;98.30;;;;;;5030344;28;20205;-71
2021/04/04 05:09:26;;;;;;;5.72;2.97;;;0.20;98.30;;;;;;5029954;28;20568;-71
2021/04/04 05:11:54;;;;;;;9.27;5.18;;;0.20;98.30;;;;;;5030668;28;20278;-71
2021/04/04 05:14:20;;;;;;;4.07;3.20;;;0.20;98.30;;;;;;5030389;28;20206;-71
2021/04/04 05:16:47;;;;;;;6.38;3.85;;;0.20;98.30;;;;;;5030293;28;20855;-71
2021/04/04 05:19:15;;;;;;;5.13;3.70;;;0.20;98.50;;;;;;5029864;28;20770;-72
2021/04/04 05:21:43;;;;;;;7.20;3.25;;;0.30;98.50;;;;;;5030173;28;20236;-72
2021/04/04 05:24:11;;;;;;;6.90;4.05;;;0.30;98.60;;;;;;5030316;28;20220;-71
2021/04/04 05:26:39;;;;;;;9.68;3.47;;;0.30;98.70;;;;;;5030431;28;20209;-72
2021/04/04 05:29:08;;;;;;;5.22;3.90;;;0.40;98.70;;;;;;5029729;28;20224;-72
2021/04/04 05:31:44;;;;;;;6.32;4.03;;;0.40;98.70;;;;;;5030209;28;20205;-71
2021/04/04 05:34:12;;;;;;;4.18;3.13;;;0.50;98.80;;;;;;5104662;22;20247;-74
2021/04/04 05:36:46;;;;;;;4.82;3.90;;;0.60;98.70;;;;;;5037934;28;20938;-74
2021/04/04 05:39:12;;;;;;;5.85;3.90;;;0.60;98.60;;;;;;5039704;28;20216;-74
2021/04/04 05:41:42;;;;;;;6.60;3.72;;;0.70;98.60;;;;;;5039254;28;20197;-74
2021/04/04 05:44:12;;;;;;;9.07;4.55;;;0.70;98.50;;;;;;5038392;28;20208;-74
2021/04/04 05:46:44;;;;;;;6.15;4.80;;;0.80;98.50;;;;;;5036991;28;20194;-74
2021/04/04 05:49:17;;;;;;;7.18;4.28;;;0.80;98.60;;;;;;5026204;28;20681;-74
2021/04/04 05:51:50;;;;;;;4.43;3.72;;;0.90;98.60;;;;;;5040147;28;20201;-74
2021/04/04 05:54:53;;;;;;;5.78;4.00;;;1.00;98.50;;;;;;5039890;28;20208;-74
2021/04/04 05:57:27;;;;;;;4.13;3.30;;;1.20;98.20;;;;;;5038802;28;20213;-74
2021/04/04 06:00:00;;;;;;;8.20;3.90;;;1.30;97.80;;;;;;5036462;28;20220;-74
2021/04/04 06:03:09;;;;;;;4.57;3.50;;;1.40;97.70;;;;;;5023788;28;20564;-74
2021/04/04 06:05:51;;;;;;;5.32;2.90;;;1.40;97.80;;;;;;5020982;28;20534;-74
2021/04/04 06:08:36;;;;;;;3.60;3.30;;;1.50;97.90;;;;;;5019280;28;20210;-74
2021/04/04 06:11:11;;;;;;;5.20;3.40;;;1.60;97.90;;;;;;5020557;28;20202;-74
2021/04/04 06:13:51;;;;;;;7.05;3.25;;;1.60;98.00;;;;;;5019910;28;20237;-74
2021/04/04 06:16:30;;;;;;;6.35;4.60;;;1.80;97.60;;;;;;5020485;28;20198;-74
2021/04/04 06:19:10;;;;;;;7.22;3.40;;;1.90;97.30;;;;;;5018957;28;20234;-74
2021/04/04 06:21:41;;;;;;;6.50;3.40;;;2.00;97.30;;;;;;5019758;28;20194;-74
2021/04/04 06:24:17;;;;;;;7.82;3.75;;;2.10;97.60;;;;;;5018717;28;20210;-74
2021/04/04 06:26:55;;;;;;;8.65;3.20;;;2.20;97.80;;;;;;5018180;28;20197;-74
2021/04/04 06:29:31;;;;;;;6.32;3.35;;;2.30;98.00;;;;;;5018305;28;20202;-74
2021/04/04 06:32:03;;;;;;;5.57;3.40;;;2.50;98.20;;;;;;5029456;28;20651;-74
2021/04/04 06:34:36;;;;;;;6.50;3.33;;;2.60;98.20;;;;;;5029847;28;20596;-74
2021/04/04 06:37:23;;;;;;;6.13;3.28;;;2.70;98.30;;;;;;5031337;28;20213;-74
2021/04/04 06:40:03;;;;;;;4.70;3.50;;;2.90;98.30;;;;;;5038525;28;20225;-74
2021/04/04 06:42:58;;;;;;;5.18;3.53;;;3.00;98.30;;;;;;5039387;28;20943;-73
2021/04/04 06:45:30;;;;;;;9.32;3.70;;;3.20;98.20;;;;;;5038144;28;20251;-74
2021/04/04 06:48:35;;;;;;;5.55;4.10;;;3.40;97.70;;;;;;5035474;28;20221;-73
2021/04/04 06:51:09;;;;;;;5.85;3.60;;;3.70;96.50;;;;;;5038080;28;20236;-73
2021/04/04 06:53:53;;;;;;;6.05;4.28;;;3.90;96.20;;;;;;5035375;28;20198;-74
2021/04/04 06:56:29;;;;;;;8.45;4.20;;;4.00;95.50;;;;;;5034719;28;20732;-73
2021/04/04 06:59:08;;;;;;;7.32;3.85;;;4.30;94.60;;;;;;5028083;28;20595;-72
2021/04/04 07:01:42;;;;;;;10.52;4.80;;;4.50;94.20;;;;;;5028836;28;20284;-72
2021/04/04 07:04:17;;;;;;;7.53;3.30;;;4.70;94.30;;;;;;5029149;28;20589;-72
2021/04/04 07:07:25;;;;;;;7.45;3.60;;;4.80;93.30;;;;;;5028210;28;20201;-72
2021/04/04 07:10:08;;;;;;;6.50;4.85;;;5.00;92.50;;;;;;5028314;28;20201;-72
2021/04/04 07:12:58;;;;;;;9.13;3.92;;;5.20;92.60;;;;;;5028945;28;20201;-72
2021/04/04 07:15:39;;;;;;;8.38;5.18;;;5.40;92.00;;;;;;5028814;28;20228;-72
2021/04/04 07:18:48;;;;;;;7.25;3.95;;;5.50;91.70;;;;;;5028922;28;20292;-72
2021/04/04 07:21:37;;;;;;;8.52;4.07;;;5.70;91.90;;;;;;4980566;28;20259;-72
2021/04/04 07:24:11;;;;;;;7.47;3.55;;;5.90;90.90;;;;;;5028908;28;20213;-72
2021/04/04 07:26:42;;;;;;;6.35;4.15;;;6.00;90.40;;;;;;5028594;28;20213;-72
2021/04/04 07:29:29;;;;;;;8.88;4.20;;;6.20;91.20;;;;;;5028229;28;20218;-72
2021/04/04 07:32:03;;;;;;;9.48;4.00;;;6.40;90.70;;;;;;5028536;28;20255;-72
2021/04/04 07:34:39;;;;;;;6.53;4.22;;;6.60;89.60;;;;;;5028244;28;20209;-72
2021/04/04 07:37:33;;;;;;;6.43;4.38;;;6.80;89.40;;;;;;5028720;28;20202;-72
2021/04/04 07:40:08;;;;;;;6.70;4.05;;;7.30;90.10;;;;;;5028243;28;20295;-73
2021/04/04 07:42:43;;;;;;;4.57;3.63;;;7.60;87.70;;;;;;5028304;28;20201;-71
2021/04/04 07:45:15;;;;;;;7.90;4.70;;;8.10;86.40;;;;;;5026799;28;20209;-72
2021/04/04 07:47:53;;;;;;;8.10;5.07;;;8.50;84.70;;;;;;5039990;28;20220;-73
2021/04/04 07:50:25;;;;;;;6.35;4.20;;;8.90;84.30;;;;;;5031101;28;20236;-73
2021/04/04 07:52:59;;;;;;;6.13;4.10;;;9.40;83.30;;;;;;5025125;28;20206;-73
2021/04/04 07:55:35;;;;;;;7.03;4.47;;;9.90;80.80;;;;;;5025042;28;20197;-74
2021/04/04 07:58:09;;;;;;;9.93;4.18;;;10.30;80.00;;;;;;5024271;28;20223;-74
2021/04/04 08:00:39;;;;;;;6.78;4.90;;;10.70;79.70;;;;;;5025217;28;20206;-74
2021/04/04 08:03:11;;;;;;;6.07;4.82;;;10.80;77.00;;;;;;5026194;28;20205;-74
2021/04/04 08:05:42;;;;;;;7.25;4.93;;;11.30;75.10;;;;;;5024969;28;20300;-74
2021/04/04 08:08:14;;;;;;;9.63;4.20;;;11.70;74.10;;;;;;5025865;28;20280;-73
2021/04/04 08:10:52;;;;;;;5.60;4.85;;;12.10;71.40;;;;;;5025219;28;20376;-74
2021/04/04 08:13:22;;;;;;;5.60;4.40;;;12.20;70.40;;;;;;5024703;28;20684;-74
2021/04/04 08:15:58;;;;;;;7.65;4.65;;;12.20;72.10;;;;;;5018833;28;20199;-75
2021/04/04 08:18:24;;;;;;;5.37;3.90;;;12.40;71.80;;;;;;5009236;28;20309;-74
2021/04/04 08:20:54;;;;;;;8.83;4.60;;;12.70;71.60;;;;;;5011387;28;20480;-74
2021/04/04 08:23:27;;;;;;;6.53;4.53;;;13.00;72.10;;;;;;5012044;28;20492;-73
2021/04/04 08:25:57;;;;;;;7.20;4.80;;;13.10;71.30;;;;;;5022287;28;21122;-74
2021/04/04 08:28:27;;;;;;;5.63;4.20;;;13.40;71.10;;;;;;5027296;28;20488;-74
2021/04/04 08:30:56;;;;;;;6.70;5.03;;;13.80;69.90;;;;;;5027963;28;20464;-74
2021/04/04 08:33:28;;;;;;;8.63;4.40;;;14.00;68.90;;;;;;5047971;28;20563;-74
2021/04/04 08:35:59;;;;;;;7.67;4.40;;;14.90;67.50;;;;;;5048397;28;20459;-74
2021/04/04 08:38:38;;;;;;;5.90;4.20;;;15.70;66.40;;;;;;5048777;28;20476;-74
2021/04/04 08:41:05;;;;;;;6.07;4.33;;;16.40;62.10;;;;;;5048809;28;20459;-74
2021/04/04 08:43:34;;;;;;;6.27;5.00;;;16.90;62.10;;;;;;5048319;28;20501;-74
2021/04/04 08:46:05;;;;;;;6.50;4.70;;;17.40;61.10;;;;;;5048558;28;20905;-74
2021/04/04 08:48:33;;;;;;;6.53;4.60;;;17.80;59.70;;;;;;5047718;28;20484;-74
2021/04/04 08:51:08;;;;;;;7.17;4.77;;;17.70;60.10;;;;;;5048274;28;20448;-74
2021/04/04 08:53:43;;;;;;;7.10;4.23;;;17.70;60.20;;;;;;5048447;28;20467;-74
2021/04/04 08:56:10;;;;;;;6.90;4.33;;;18.00;58.90;;;;;;5047911;28;20462;-74
2021/04/04 08:58:39;;;;;;;5.60;4.00;;;18.30;58.60;;;;;;5047174;28;20578;-74
2021/04/04 09:01:10;;;;;;;5.97;4.00;;;18.20;59.10;;;;;;5048295;28;20459;-74
2021/04/04 09:03:42;;;;;;;6.43;3.90;;;18.10;59.10;;;;;;5047571;28;20494;-74
2021/04/04 09:06:10;;;;;;;6.63;4.50;;;18.10;57.60;;;;;;5048026;28;20467;-71
2021/04/04 09:08:44;;;;;;;9.23;5.20;;;18.60;59.10;;;;;;5047423;28;20945;-72
2021/04/04 09:11:20;;;;;;;6.20;4.20;;;19.20;55.40;;;;;;5048052;28;20486;-72
2021/04/04 09:13:50;;;;;;;5.43;4.33;;;19.40;55.90;;;;;;5047826;28;20447;-71
2021/04/04 09:16:22;;;;;;;6.00;4.40;;;19.90;55.90;;;;;;5047715;28;20459;-72
2021/04/04 09:18:52;;;;;;;8.60;4.43;;;20.10;54.60;;;;;;5046538;28;20495;-72
2021/04/04 09:21:21;;;;;;;7.10;4.40;;;20.50;54.70;;;;;;5048080;28;20958;-72
2021/04/04 09:23:50;;;;;;;5.70;4.10;;;20.90;52.10;;;;;;5048046;28;20560;-71
2021/04/04 09:26:21;;;;;;;5.10;3.80;;;20.80;54.00;;;;;;5048358;28;21060;-72
2021/04/04 09:28:52;;;;;;;4.67;3.83;;;20.90;51.30;;;;;;5047966;28;20498;-71
2021/04/04 09:31:23;;;;;;;5.47;4.23;;;20.80;54.10;;;;;;5048064;28;20562;-71
2021/04/04 09:33:58;;;;;;;5.40;4.10;;;20.00;53.50;;;;;;5048236;28;20490;-72
2021/04/04 09:36:40;;;;;;;7.30;4.53;;;18.60;55.10;;;;;;5048437;28;21350;-72
2021/04/04 09:39:16;;;;;;;6.23;4.33;;;19.50;55.90;;;;;;5047549;28;20479;-72
2021/04/04 09:41:52;;;;;;;4.67;4.07;;;20.40;53.40;;;;;;5047510;28;20463;-72
2021/04/04 09:44:28;;;;;;;6.27;4.30;;;20.90;52.20;;;;;;5047421;28;20451;-72
2021/04/04 09:46:56;;;;;;;6.77;4.40;;;20.30;53.50;;;;;;5047308;28;20459;-72
2021/04/04 09:49:40;;;;;;;4.40;3.73;;;19.20;54.00;;;;;;5047034;28;21181;-71
2021/04/04 09:52:24;;;;;;;5.60;4.00;;;17.90;55.30;;;;;;5046943;28;20463;-71
2021/04/04 09:55:25;;;;;;;4.97;3.80;;;16.50;55.80;;;;;;5045561;28;20512;-72
2021/04/04 09:58:00;;;;;;;6.43;3.33;;;15.80;54.70;;;;;;5046932;28;20491;-71
2021/04/04 10:00:35;;;;;;;10.73;4.20;;;15.00;56.20;;;;;;5046404;28;20463;-71
2021/04/04 10:03:18;;;;;;;6.17;3.77;;;14.30;57.40;;;;;;5026882;28;20633;-72
2021/04/04 10:05:52;;;;;;;5.60;3.27;;;14.20;58.40;;;;;;5028152;28;20464;-72
2021/04/04 10:08:27;;;;;;;6.60;3.93;;;14.00;58.60;;;;;;5027636;28;20579;-72
2021/04/04 10:10:57;;;;;;;5.87;3.93;;;15.00;60.00;;;;;;5028323;28;20468;-72
2021/04/04 10:13:37;;;;;;;4.90;3.63;;;16.40;57.20;;;;;;5028065;28;20963;-72
2021/04/04 10:16:21;;;;;;;4.13;3.10;;;16.80;54.70;;;;;;5028559;28;20474;-72
2021/04/04 10:19:15;;;;;;;4.70;3.40;;;16.40;54.70;;;;;;5027991;28;20591;-71
2021/04/04 10:21:57;;;;;;;7.70;3.40;;;16.30;56.00;;;;;;5027759;28;20456;-72
2021/04/04 10:24:35;;;;;;;5.63;3.20;;;16.40;55.00;;;;;;5028298;28;20463;-71
2021/04/04 10:27:25;;;;;;;3.80;3.10;;;16.00;54.30;;;;;;5028118;28;20625;-72
2021/04/04 10:30:13;;;;;;;4.43;3.07;;;15.20;55.30;;;;;;5025969;28;20488;-74
2021/04/04 10:32:42;;;;;;;4.67;3.30;;;14.60;56.60;;;;;;5024721;28;20538;-74
2021/04/04 10:35:13;;;;;;;3.80;3.00;;;14.10;57.20;;;;;;5026978;28;20568;-72
2021/04/04 10:37:40;;;;;;;5.63;2.73;;;14.60;58.70;;;;;;5025875;28;20514;-72
2021/04/04 10:40:09;;;;;;;3.93;2.63;;;16.50;56.40;;;;;;5026415;28;20463;-72
2021/04/04 10:42:40;;;;;;;4.57;3.00;;;17.90;52.30;;;;;;5025552;28;20464;-72
2021/04/04 10:45:16;;;;;;;3.17;2.67;;;17.80;53.40;;;;;;5026266;28;20464;-72
2021/04/04 10:47:44;;;;;;;5.53;3.37;;;17.10;53.50;;;;;;5026671;28;20621;-72
2021/04/04 10:50:14;;;;;;;4.27;3.17;;;17.10;52.00;;;;;;5025829;28;21112;-72
2021/04/04 10:52:43;;;;;;;4.80;2.77;;;17.80;51.30;;;;;;5026838;28;20471;-72
2021/04/04 10:55:14;;;;;;;4.90;3.00;;;18.70;50.80;;;;;;5027242;28;20490;-72
2021/04/04 10:57:42;;;;;;;5.13;2.77;;;20.40;50.60;;;;;;5036659;28;20482;-72
2021/04/04 11:00:17;;;;;;;5.20;3.20;;;21.70;46.40;;;;;;5046715;28;20832;-72
2021/04/04 11:02:44;;;;;;;3.07;2.73;;;22.30;46.50;;;;;;5046562;28;20549;-72
2021/04/04 11:05:16;;;;;;;6.17;2.60;;;22.50;47.50;;;;;;5045926;28;20464;-72
2021/04/04 11:07:43;;;;;;;4.37;3.23;;;22.90;46.10;;;;;;5046071;28;20487;-73
2021/04/04 11:10:14;;;;;;;4.00;2.80;;;23.50;47.10;;;;;;5045965;28;20561;-72
2021/04/04 11:12:47;;;;;;;3.90;2.77;;;24.00;46.40;;;;;;5046816;28;20467;-72
2021/04/04 11:15:17;;;;;;;3.00;2.50;;;24.70;45.40;;;;;;5046751;28;21019;-73
2021/04/04 11:17:46;;;;;;;3.67;2.80;;;25.40;44.70;;;;;;5045630;28;20484;-73
2021/04/04 11:20:22;;;;;;;3.27;2.97;;;25.50;45.50;;;;;;5041809;28;20456;-73
2021/04/04 11:22:54;;;;;;;3.40;3.10;;;26.40;44.40;;;;;;5025906;28;20556;-72
2021/04/04 11:25:38;;;;;;;3.00;2.50;;;26.40;43.20;;;;;;5024525;28;20462;-73
2021/04/04 11:28:27;;;;;;;5.27;2.97;;;25.70;43.70;;;;;;5033023;28;20503;-71
2021/04/04 11:30:55;;;;;;;4.43;3.10;;;25.60;42.80;;;;;;5033826;28;20531;-71
2021/04/04 11:33:31;;;;;;;3.70;2.60;;;25.20;42.80;;;;;;5023766;28;20472;-71
2021/04/04 11:36:41;;;;;;;3.90;3.50;;;25.10;43.00;;;;;;5027017;28;20533;-72
2021/04/04 11:39:11;;;;;;;4.13;3.00;;;25.40;41.90;;;;;;5033366;28;20468;-71
2021/04/04 11:41:47;;;;;;;5.00;3.60;;;25.80;42.10;;;;;;5029570;28;20456;-72
2021/04/04 11:44:24;;;;;;;4.53;3.60;;;26.40;42.10;;;;;;5034611;28;20456;-71
2021/04/04 11:46:53;;;;;;;3.30;3.00;;;26.70;40.80;;;;;;5031113;28;20464;-71
2021/04/04 11:49:44;;;;;;;3.47;2.77;;;26.20;42.50;;;;;;5034259;28;20536;-72
2021/04/04 11:52:41;;;;;;;4.23;3.30;;;25.30;41.10;;;;;;5036395;28;20558;-72
2021/04/04 11:55:20;;;;;;;3.33;2.97;;;25.20;42.50;;;;;;5024255;28;20456;-71
2021/04/04 11:57:57;;;;;;;6.67;3.50;;;25.20;42.90;;;;;;5037259;28;20484;-71
2021/04/04 12:00:28;;;;;;;3.90;3.17;;;25.10;43.10;;;;;;5038092;28;20457;-72
2021/04/04 12:03:04;;;;;;;4.67;3.27;;;25.20;43.50;;;;;;5036829;28;20458;-71
2021/04/04 12:05:39;;;;;;;3.40;3.10;;;25.60;42.60;;;;;;5038402;28;20447;-71
2021/04/04 12:08:08;;;;;;;3.93;3.40;;;25.90;41.70;;;;;;5040208;28;20474;-71
2021/04/04 12:10:37;;;;;;;3.37;3.07;;;25.60;41.60;;;;;;5034657;28;20538;-70
2021/04/04 12:13:15;;;;;;;3.13;2.90;;;25.70;41.40;;;;;;5038812;28;20450;-70
2021/04/04 12:15:44;;;;;;;6.33;3.30;;;25.30;42.50;;;;;;5041068;28;20459;-71
2021/04/04 12:18:11;;;;;;;4.40;3.03;;;24.70;42.40;;;;;;5036097;28;20476;-71
2021/04/04 12:20:40;;;;;;;5.30;3.63;;;24.60;41.60;;;;;;5042047;28;20471;-72
2021/04/04 12:23:10;;;;;;;3.30;2.80;;;24.30;42.80;;;;;;5028781;28;20464;-72
2021/04/04 12:25:36;;;;;;;6.67;3.10;;;25.00;43.50;;;;;;5028007;28;20464;-72
2021/04/04 12:28:03;;;;;;;8.30;3.73;;;25.40;41.60;;;;;;5028861;28;21246;-72
2021/04/04 12:30:32;;;;;;;4.50;3.20;;;25.10;43.00;;;;;;5028994;28;20527;-72
2021/04/04 12:33:04;;;;;;;4.90;3.30;;;24.20;45.00;;;;;;5028507;28;20479;-72
2021/04/04 12:35:31;;;;;;;4.57;3.30;;;24.40;43.50;;;;;;5029533;28;20517;-72
2021/04/04 12:37:58;;;;;;;3.97;3.37;;;24.60;44.50;;;;;;5030019;28;20484;-71
2021/04/04 12:40:24;;;;;;;3.90;3.50;;;25.00;43.50;;;;;;5029278;28;20464;-71
2021/04/04 12:42:56;;;;;;;3.83;3.33;;;25.40;42.60;;;;;;5031115;28;20472;-72
2021/04/04 12:45:22;;;;;;;5.60;3.10;;;24.90;42.90;;;;;;5030501;28;20502;-71
2021/04/04 12:47:48;;;;;;;5.67;3.53;;;25.10;42.50;;;;;;5028921;28;20488;-72
2021/04/04 12:50:17;;;;;;;5.17;3.77;;;25.20;43.50;;;;;;5027398;28;20484;-72
2021/04/04 12:52:44;;;;;;;4.27;3.87;;;25.00;43.70;;;;;;5026966;28;20468;-72
2021/04/04 12:55:20;;;;;;;3.87;3.43;;;24.80;42.90;;;;;;5027518;28;20543;-71
2021/04/04 12:57:50;;;;;;;5.33;4.27;;;22.40;43.30;;;;;;5026718;28;20479;-71
2021/04/04 13:00:20;;;;;;;5.20;3.63;;;21.10;45.20;;;;;;5027308;28;20468;-71
2021/04/04 13:03:09;;;;;;;4.63;3.70;;;20.80;47.90;;;;;;5025462;28;21331;-71
2021/04/04 13:05:45;;;;;;;5.30;3.60;;;21.30;45.00;;;;;;5023722;28;20464;-71
2021/04/04 13:08:27;;;;;;;3.93;3.63;;;21.90;46.10;;;;;;5024649;28;20491;-71
2021/04/04 13:11:06;;;;;;;4.63;3.37;;;22.80;46.70;;;;;;5025190;28;20488;-72
2021/04/04 13:13:42;;;;;;;4.83;3.40;;;23.80;46.10;;;;;;5027242;28;20496;-71
2021/04/04 13:16:17;;;;;;;4.30;3.50;;;23.90;45.20;;;;;;5027016;28;21067;-72
2021/04/04 13:19:11;;;;;;;4.40;3.80;;;23.50;45.00;;;;;;5026469;28;20483;-71